sensor_id;sensor_type;location;lat;lon;timestamp;P1;durP1;ratioP1;P2;durP2;ratioP2
14474;SDS011;7323;50.848;4.334;2023-05-02T00:02:01;35.40;;;22.33;;
14474;SDS011;7323;50.848;4.334;2023-05-02T00:04:48;38.77;;;22.53;;
14474;SDS011;7323;50.848;4.334;2023-05-02T00:07:55;35.43;;;22.27;;
14474;SDS011;7323;50.848;4.334;2023-05-02T00:14:10;30.80;;;22.37;;
14474;SDS011;7323;50.848;4.334;2023-05-02T00:16:38;34.53;;;22.00;;
14474;SDS011;7323;50.848;4.334;2023-05-02T00:19:13;37.87;;;22.90;;
14474;SDS011;7323;50.848;4.334;2023-05-02T00:21:39;38.83;;;23.90;;
14474;SDS011;7323;50.848;4.334;2023-05-02T00:24:20;36.80;;;24.07;;
14474;SDS011;7323;50.848;4.334;2023-05-02T00:26:57;39.77;;;24.10;;
14474;SDS011;7323;50.848;4.334;2023-05-02T00:29:37;36.63;;;24.40;;
14474;SDS011;7323;50.848;4.334;2023-05-02T00:39:33;38.87;;;26.03;;
14474;SDS011;7323;50.848;4.334;2023-05-02T00:42:26;40.37;;;26.80;;
14474;SDS011;7323;50.848;4.334;2023-05-02T00:55:46;46.23;;;29.90;;
14474;SDS011;7323;50.848;4.334;2023-05-02T01:35:09;50.40;;;34.90;;
14474;SDS011;7323;50.848;4.334;2023-05-02T01:37:39;49.27;;;32.50;;
14474;SDS011;7323;50.848;4.334;2023-05-02T01:40:55;47.80;;;31.47;;
14474;SDS011;7323;50.848;4.334;2023-05-02T01:44:14;51.13;;;31.97;;
14474;SDS011;7323;50.848;4.334;2023-05-02T01:50:44;47.50;;;32.13;;
14474;SDS011;7323;50.848;4.334;2023-05-02T01:54:19;46.90;;;31.97;;
14474;SDS011;7323;50.848;4.334;2023-05-02T02:00:03;49.83;;;29.57;;
14474;SDS011;7323;50.848;4.334;2023-05-02T02:06:23;43.80;;;29.10;;
14474;SDS011;7323;50.848;4.334;2023-05-02T02:49:47;48.13;;;31.93;;
14474;SDS011;7323;50.848;4.334;2023-05-02T03:13:38;38.53;;;25.13;;
14474;SDS011;7323;50.848;4.334;2023-05-02T03:26:52;39.37;;;27.00;;
14474;SDS011;7323;50.848;4.334;2023-05-02T03:37:10;42.80;;;27.07;;
14474;SDS011;7323;50.848;4.334;2023-05-02T03:57:09;44.23;;;27.37;;
14474;SDS011;7323;50.848;4.334;2023-05-02T04:06:31;53.70;;;32.43;;
14474;SDS011;7323;50.848;4.334;2023-05-02T04:16:04;50.67;;;30.83;;
14474;SDS011;7323;50.848;4.334;2023-05-02T04:22:05;50.57;;;31.60;;
14474;SDS011;7323;50.848;4.334;2023-05-02T04:25:14;54.13;;;32.17;;
14474;SDS011;7323;50.848;4.334;2023-05-02T04:27:41;50.23;;;32.00;;
14474;SDS011;7323;50.848;4.334;2023-05-02T04:30:07;57.07;;;33.27;;
14474;SDS011;7323;50.848;4.334;2023-05-02T04:32:35;52.13;;;32.57;;
14474;SDS011;7323;50.848;4.334;2023-05-02T04:35:06;52.07;;;33.03;;
14474;SDS011;7323;50.848;4.334;2023-05-02T04:37:32;52.93;;;31.37;;
14474;SDS011;7323;50.848;4.334;2023-05-02T04:40:03;52.07;;;31.70;;
14474;SDS011;7323;50.848;4.334;2023-05-02T04:42:30;50.97;;;32.27;;
14474;SDS011;7323;50.848;4.334;2023-05-02T04:45:02;49.37;;;32.60;;
14474;SDS011;7323;50.848;4.334;2023-05-02T04:47:28;51.20;;;31.03;;
14474;SDS011;7323;50.848;4.334;2023-05-02T04:49:53;53.20;;;32.50;;
14474;SDS011;7323;50.848;4.334;2023-05-02T04:52:19;53.17;;;32.10;;
14474;SDS011;7323;50.848;4.334;2023-05-02T04:54:45;50.63;;;31.63;;
14474;SDS011;7323;50.848;4.334;2023-05-02T04:57:11;51.07;;;32.27;;
14474;SDS011;7323;50.848;4.334;2023-05-02T04:59:36;53.10;;;31.73;;
14474;SDS011;7323;50.848;4.334;2023-05-02T05:02:21;46.97;;;31.63;;
14474;SDS011;7323;50.848;4.334;2023-05-02T05:05:18;51.80;;;33.83;;
14474;SDS011;7323;50.848;4.334;2023-05-02T05:07:45;50.43;;;30.97;;
14474;SDS011;7323;50.848;4.334;2023-05-02T05:10:11;46.97;;;31.50;;
14474;SDS011;7323;50.848;4.334;2023-05-02T05:12:40;50.40;;;31.80;;
14474;SDS011;7323;50.848;4.334;2023-05-02T05:15:06;49.27;;;32.37;;
14474;SDS011;7323;50.848;4.334;2023-05-02T05:17:32;44.77;;;30.90;;
14474;SDS011;7323;50.848;4.334;2023-05-02T05:20:07;42.33;;;29.57;;
14474;SDS011;7323;50.848;4.334;2023-05-02T05:22:38;43.83;;;29.17;;
14474;SDS011;7323;50.848;4.334;2023-05-02T05:25:08;45.93;;;31.43;;
14474;SDS011;7323;50.848;4.334;2023-05-02T05:27:34;42.83;;;28.00;;
14474;SDS011;7323;50.848;4.334;2023-05-02T05:30:02;37.97;;;24.27;;
14474;SDS011;7323;50.848;4.334;2023-05-02T05:32:28;42.83;;;27.90;;
14474;SDS011;7323;50.848;4.334;2023-05-02T05:34:55;39.33;;;26.53;;
14474;SDS011;7323;50.848;4.334;2023-05-02T05:37:22;32.00;;;24.03;;
14474;SDS011;7323;50.848;4.334;2023-05-02T05:39:48;37.90;;;25.57;;
14474;SDS011;7323;50.848;4.334;2023-05-02T05:42:25;37.03;;;24.23;;
14474;SDS011;7323;50.848;4.334;2023-05-02T05:44:59;34.73;;;24.40;;
14474;SDS011;7323;50.848;4.334;2023-05-02T05:47:25;35.73;;;24.40;;
14474;SDS011;7323;50.848;4.334;2023-05-02T05:49:51;34.70;;;23.60;;
14474;SDS011;7323;50.848;4.334;2023-05-02T05:52:21;36.13;;;24.57;;
14474;SDS011;7323;50.848;4.334;2023-05-02T05:54:49;29.87;;;21.63;;
14474;SDS011;7323;50.848;4.334;2023-05-02T05:57:19;29.00;;;21.87;;
14474;SDS011;7323;50.848;4.334;2023-05-02T05:59:45;29.43;;;22.20;;
14474;SDS011;7323;50.848;4.334;2023-05-02T06:02:11;31.10;;;21.80;;
14474;SDS011;7323;50.848;4.334;2023-05-02T06:04:37;30.57;;;21.77;;
14474;SDS011;7323;50.848;4.334;2023-05-02T06:07:03;28.20;;;20.83;;
14474;SDS011;7323;50.848;4.334;2023-05-02T06:09:29;33.10;;;22.30;;
14474;SDS011;7323;50.848;4.334;2023-05-02T06:11:56;25.43;;;20.10;;
14474;SDS011;7323;50.848;4.334;2023-05-02T06:14:28;29.00;;;21.23;;
14474;SDS011;7323;50.848;4.334;2023-05-02T06:16:54;31.13;;;21.53;;
14474;SDS011;7323;50.848;4.334;2023-05-02T06:19:28;27.37;;;21.40;;
14474;SDS011;7323;50.848;4.334;2023-05-02T06:21:54;27.73;;;20.53;;
14474;SDS011;7323;50.848;4.334;2023-05-02T06:24:20;29.00;;;22.27;;
14474;SDS011;7323;50.848;4.334;2023-05-02T06:26:49;31.20;;;21.63;;
14474;SDS011;7323;50.848;4.334;2023-05-02T06:29:18;30.30;;;21.10;;
14474;SDS011;7323;50.848;4.334;2023-05-02T06:31:43;29.60;;;22.53;;
14474;SDS011;7323;50.848;4.334;2023-05-02T06:34:09;34.17;;;22.27;;
14474;SDS011;7323;50.848;4.334;2023-05-02T06:36:56;32.17;;;23.43;;
14474;SDS011;7323;50.848;4.334;2023-05-02T06:39:26;34.17;;;24.67;;
14474;SDS011;7323;50.848;4.334;2023-05-02T06:41:56;32.17;;;23.80;;
14474;SDS011;7323;50.848;4.334;2023-05-02T06:44:22;31.37;;;23.50;;
14474;SDS011;7323;50.848;4.334;2023-05-02T06:46:57;32.30;;;25.13;;
14474;SDS011;7323;50.848;4.334;2023-05-02T06:49:34;37.03;;;24.80;;
14474;SDS011;7323;50.848;4.334;2023-05-02T06:52:00;35.43;;;25.63;;
14474;SDS011;7323;50.848;4.334;2023-05-02T06:54:29;31.10;;;24.10;;
14474;SDS011;7323;50.848;4.334;2023-05-02T06:56:59;34.20;;;26.10;;
14474;SDS011;7323;50.848;4.334;2023-05-02T06:59:26;33.10;;;24.63;;
14474;SDS011;7323;50.848;4.334;2023-05-02T07:02:00;29.73;;;23.77;;
14474;SDS011;7323;50.848;4.334;2023-05-02T07:04:26;34.50;;;25.73;;
14474;SDS011;7323;50.848;4.334;2023-05-02T07:06:52;30.57;;;24.80;;
14474;SDS011;7323;50.848;4.334;2023-05-02T07:09:46;31.03;;;23.57;;
14474;SDS011;7323;50.848;4.334;2023-05-02T07:12:12;30.10;;;22.23;;
14474;SDS011;7323;50.848;4.334;2023-05-02T07:14:38;30.00;;;23.70;;
14474;SDS011;7323;50.848;4.334;2023-05-02T07:17:16;30.10;;;23.63;;
14474;SDS011;7323;50.848;4.334;2023-05-02T07:19:42;31.37;;;23.97;;
14474;SDS011;7323;50.848;4.334;2023-05-02T07:22:08;34.57;;;24.03;;
14474;SDS011;7323;50.848;4.334;2023-05-02T07:24:35;27.63;;;23.77;;
14474;SDS011;7323;50.848;4.334;2023-05-02T07:27:12;29.97;;;24.37;;
14474;SDS011;7323;50.848;4.334;2023-05-02T07:29:39;30.53;;;24.07;;
14474;SDS011;7323;50.848;4.334;2023-05-02T07:32:06;27.57;;;23.23;;
14474;SDS011;7323;50.848;4.334;2023-05-02T07:34:35;31.80;;;23.90;;
14474;SDS011;7323;50.848;4.334;2023-05-02T07:37:01;29.53;;;21.77;;
14474;SDS011;7323;50.848;4.334;2023-05-02T07:39:27;31.57;;;23.83;;
14474;SDS011;7323;50.848;4.334;2023-05-02T07:41:54;29.47;;;23.37;;
14474;SDS011;7323;50.848;4.334;2023-05-02T07:44:28;33.47;;;24.53;;
14474;SDS011;7323;50.848;4.334;2023-05-02T07:47:00;30.43;;;21.90;;
14474;SDS011;7323;50.848;4.334;2023-05-02T07:49:26;30.43;;;21.50;;
14474;SDS011;7323;50.848;4.334;2023-05-02T07:54:22;25.10;;;19.17;;
14474;SDS011;7323;50.848;4.334;2023-05-02T07:56:51;25.97;;;20.90;;
14474;SDS011;7323;50.848;4.334;2023-05-02T07:59:17;29.17;;;21.50;;
14474;SDS011;7323;50.848;4.334;2023-05-02T08:01:43;24.07;;;19.50;;
14474;SDS011;7323;50.848;4.334;2023-05-02T08:04:11;24.43;;;20.03;;
14474;SDS011;7323;50.848;4.334;2023-05-02T08:06:37;21.33;;;19.17;;
14474;SDS011;7323;50.848;4.334;2023-05-02T08:09:03;18.30;;;16.40;;
14474;SDS011;7323;50.848;4.334;2023-05-02T08:14:15;20.80;;;16.90;;
14474;SDS011;7323;50.848;4.334;2023-05-02T08:16:41;16.90;;;14.93;;
14474;SDS011;7323;50.848;4.334;2023-05-02T08:19:07;17.47;;;14.87;;
14474;SDS011;7323;50.848;4.334;2023-05-02T08:21:33;19.80;;;16.00;;
14474;SDS011;7323;50.848;4.334;2023-05-02T08:23:59;12.27;;;10.80;;
14474;SDS011;7323;50.848;4.334;2023-05-02T08:26:34;13.57;;;10.03;;
14474;SDS011;7323;50.848;4.334;2023-05-02T08:29:00;11.27;;;9.80;;
14474;SDS011;7323;50.848;4.334;2023-05-02T08:31:28;12.10;;;8.23;;
14474;SDS011;7323;50.848;4.334;2023-05-02T08:33:57;12.13;;;8.93;;
14474;SDS011;7323;50.848;4.334;2023-05-02T08:36:23;10.83;;;8.40;;
14474;SDS011;7323;50.848;4.334;2023-05-02T08:38:49;11.03;;;8.00;;
14474;SDS011;7323;50.848;4.334;2023-05-02T08:41:15;12.10;;;8.03;;
14474;SDS011;7323;50.848;4.334;2023-05-02T08:43:45;14.00;;;8.10;;
14474;SDS011;7323;50.848;4.334;2023-05-02T08:46:11;10.37;;;7.63;;
14474;SDS011;7323;50.848;4.334;2023-05-02T08:48:39;11.13;;;6.90;;
14474;SDS011;7323;50.848;4.334;2023-05-02T08:51:12;9.00;;;6.83;;
14474;SDS011;7323;50.848;4.334;2023-05-02T08:53:40;8.07;;;6.37;;
14474;SDS011;7323;50.848;4.334;2023-05-02T08:56:07;10.10;;;6.30;;
14474;SDS011;7323;50.848;4.334;2023-05-02T08:58:37;11.43;;;6.37;;
14474;SDS011;7323;50.848;4.334;2023-05-02T09:01:15;9.50;;;6.53;;
14474;SDS011;7323;50.848;4.334;2023-05-02T09:03:44;10.07;;;7.00;;
14474;SDS011;7323;50.848;4.334;2023-05-02T09:08:40;12.30;;;7.00;;
14474;SDS011;7323;50.848;4.334;2023-05-02T09:11:07;12.87;;;7.13;;
14474;SDS011;7323;50.848;4.334;2023-05-02T09:13:35;9.73;;;6.50;;
14474;SDS011;7323;50.848;4.334;2023-05-02T09:18:34;12.87;;;7.07;;
14474;SDS011;7323;50.848;4.334;2023-05-02T09:21:05;10.40;;;6.43;;
14474;SDS011;7323;50.848;4.334;2023-05-02T09:23:36;10.97;;;6.97;;
14474;SDS011;7323;50.848;4.334;2023-05-02T09:26:33;10.50;;;6.30;;
14474;SDS011;7323;50.848;4.334;2023-05-02T09:29:02;8.33;;;6.83;;
14474;SDS011;7323;50.848;4.334;2023-05-02T09:31:33;10.00;;;7.13;;
14474;SDS011;7323;50.848;4.334;2023-05-02T09:36:46;8.67;;;6.93;;
14474;SDS011;7323;50.848;4.334;2023-05-02T09:39:17;8.90;;;6.47;;
14474;SDS011;7323;50.848;4.334;2023-05-02T09:41:47;8.33;;;6.50;;
14474;SDS011;7323;50.848;4.334;2023-05-02T09:44:17;8.00;;;5.93;;
14474;SDS011;7323;50.848;4.334;2023-05-02T09:46:45;9.37;;;5.87;;
14474;SDS011;7323;50.848;4.334;2023-05-02T09:49:12;8.47;;;6.13;;
14474;SDS011;7323;50.848;4.334;2023-05-02T09:51:40;9.10;;;6.13;;
14474;SDS011;7323;50.848;4.334;2023-05-02T09:54:07;7.80;;;6.57;;
14474;SDS011;7323;50.848;4.334;2023-05-02T09:59:20;7.83;;;5.33;;
14474;SDS011;7323;50.848;4.334;2023-05-02T10:01:57;6.97;;;5.43;;
14474;SDS011;7323;50.848;4.334;2023-05-02T10:04:33;8.20;;;6.10;;
14474;SDS011;7323;50.848;4.334;2023-05-02T10:07:01;7.23;;;5.80;;
14474;SDS011;7323;50.848;4.334;2023-05-02T10:09:28;9.50;;;6.20;;
14474;SDS011;7323;50.848;4.334;2023-05-02T10:11:56;9.43;;;6.03;;
14474;SDS011;7323;50.848;4.334;2023-05-02T10:14:45;5.97;;;4.90;;
14474;SDS011;7323;50.848;4.334;2023-05-02T10:17:41;8.50;;;6.47;;
14474;SDS011;7323;50.848;4.334;2023-05-02T10:20:10;10.90;;;8.40;;
14474;SDS011;7323;50.848;4.334;2023-05-02T10:22:44;11.60;;;9.20;;
14474;SDS011;7323;50.848;4.334;2023-05-02T10:25:12;11.37;;;9.67;;
14474;SDS011;7323;50.848;4.334;2023-05-02T10:27:38;10.67;;;9.57;;
14474;SDS011;7323;50.848;4.334;2023-05-02T10:30:05;10.23;;;8.30;;
14474;SDS011;7323;50.848;4.334;2023-05-02T10:32:32;10.13;;;7.33;;
14474;SDS011;7323;50.848;4.334;2023-05-02T10:35:02;10.43;;;8.07;;
14474;SDS011;7323;50.848;4.334;2023-05-02T10:37:32;8.10;;;6.80;;
14474;SDS011;7323;50.848;4.334;2023-05-02T10:40:02;7.87;;;6.20;;
14474;SDS011;7323;50.848;4.334;2023-05-02T10:42:29;11.23;;;7.43;;
14474;SDS011;7323;50.848;4.334;2023-05-02T10:44:59;10.63;;;6.70;;
14474;SDS011;7323;50.848;4.334;2023-05-02T10:47:25;11.03;;;7.07;;
14474;SDS011;7323;50.848;4.334;2023-05-02T10:49:57;9.27;;;7.00;;
14474;SDS011;7323;50.848;4.334;2023-05-02T10:52:32;13.53;;;7.97;;
14474;SDS011;7323;50.848;4.334;2023-05-02T11:00:25;9.83;;;6.23;;
14474;SDS011;7323;50.848;4.334;2023-05-02T11:02:53;7.63;;;6.00;;
14474;SDS011;7323;50.848;4.334;2023-05-02T11:05:20;9.80;;;6.00;;
14474;SDS011;7323;50.848;4.334;2023-05-02T11:07:48;11.33;;;6.30;;
14474;SDS011;7323;50.848;4.334;2023-05-02T11:15:33;8.60;;;6.07;;
14474;SDS011;7323;50.848;4.334;2023-05-02T11:18:10;10.73;;;6.00;;
14474;SDS011;7323;50.848;4.334;2023-05-02T11:20:38;9.13;;;5.63;;
14474;SDS011;7323;50.848;4.334;2023-05-02T11:25:44;8.67;;;6.33;;
14474;SDS011;7323;50.848;4.334;2023-05-02T11:33:58;8.13;;;6.00;;
14474;SDS011;7323;50.848;4.334;2023-05-02T11:38:54;7.73;;;5.20;;
14474;SDS011;7323;50.848;4.334;2023-05-02T11:41:20;11.87;;;5.97;;
14474;SDS011;7323;50.848;4.334;2023-05-02T11:43:46;9.23;;;6.53;;
14474;SDS011;7323;50.848;4.334;2023-05-02T11:46:11;8.97;;;6.03;;
14474;SDS011;7323;50.848;4.334;2023-05-02T11:48:37;8.93;;;6.07;;
14474;SDS011;7323;50.848;4.334;2023-05-02T11:51:03;7.73;;;5.47;;
14474;SDS011;7323;50.848;4.334;2023-05-02T11:53:31;7.67;;;5.80;;
14474;SDS011;7323;50.848;4.334;2023-05-02T11:55:59;10.90;;;6.50;;
14474;SDS011;7323;50.848;4.334;2023-05-02T11:58:31;9.77;;;5.00;;
14474;SDS011;7323;50.848;4.334;2023-05-02T12:00:58;9.80;;;5.10;;
14474;SDS011;7323;50.848;4.334;2023-05-02T12:03:37;6.50;;;5.27;;
14474;SDS011;7323;50.848;4.334;2023-05-02T12:06:10;8.30;;;5.50;;
14474;SDS011;7323;50.848;4.334;2023-05-02T12:08:38;7.70;;;5.57;;
14474;SDS011;7323;50.848;4.334;2023-05-02T12:11:04;9.97;;;5.77;;
14474;SDS011;7323;50.848;4.334;2023-05-02T12:13:33;7.93;;;5.17;;
14474;SDS011;7323;50.848;4.334;2023-05-02T12:16:02;7.87;;;5.47;;
14474;SDS011;7323;50.848;4.334;2023-05-02T12:21:00;9.20;;;5.60;;
14474;SDS011;7323;50.848;4.334;2023-05-02T12:23:27;8.30;;;5.37;;
14474;SDS011;7323;50.848;4.334;2023-05-02T12:26:09;8.47;;;5.00;;
14474;SDS011;7323;50.848;4.334;2023-05-02T12:28:52;8.70;;;5.53;;
14474;SDS011;7323;50.848;4.334;2023-05-02T12:31:19;7.93;;;4.50;;
14474;SDS011;7323;50.848;4.334;2023-05-02T12:33:45;10.03;;;6.00;;
14474;SDS011;7323;50.848;4.334;2023-05-02T12:36:16;8.67;;;5.33;;
14474;SDS011;7323;50.848;4.334;2023-05-02T12:38:52;7.33;;;5.63;;
14474;SDS011;7323;50.848;4.334;2023-05-02T12:41:32;7.70;;;5.67;;
14474;SDS011;7323;50.848;4.334;2023-05-02T12:44:02;9.13;;;5.10;;
14474;SDS011;7323;50.848;4.334;2023-05-02T12:46:30;6.10;;;4.73;;
14474;SDS011;7323;50.848;4.334;2023-05-02T12:49:06;9.30;;;5.30;;
14474;SDS011;7323;50.848;4.334;2023-05-02T12:51:37;8.77;;;4.27;;
14474;SDS011;7323;50.848;4.334;2023-05-02T12:54:03;8.90;;;5.00;;
14474;SDS011;7323;50.848;4.334;2023-05-02T12:56:29;6.87;;;5.13;;
14474;SDS011;7323;50.848;4.334;2023-05-02T12:59:02;7.17;;;4.80;;
14474;SDS011;7323;50.848;4.334;2023-05-02T13:01:30;8.53;;;4.53;;
14474;SDS011;7323;50.848;4.334;2023-05-02T13:03:57;6.23;;;3.90;;
14474;SDS011;7323;50.848;4.334;2023-05-02T13:06:24;5.90;;;3.73;;
14474;SDS011;7323;50.848;4.334;2023-05-02T13:08:50;5.83;;;3.70;;
14474;SDS011;7323;50.848;4.334;2023-05-02T13:11:15;8.10;;;4.10;;
14474;SDS011;7323;50.848;4.334;2023-05-02T13:13:42;5.37;;;3.33;;
14474;SDS011;7323;50.848;4.334;2023-05-02T13:16:07;6.93;;;3.73;;
14474;SDS011;7323;50.848;4.334;2023-05-02T13:18:33;9.37;;;3.17;;
14474;SDS011;7323;50.848;4.334;2023-05-02T13:20:59;6.97;;;3.50;;
14474;SDS011;7323;50.848;4.334;2023-05-02T13:23:25;11.33;;;4.63;;
14474;SDS011;7323;50.848;4.334;2023-05-02T13:25:50;8.97;;;3.97;;
14474;SDS011;7323;50.848;4.334;2023-05-02T13:28:16;6.13;;;2.80;;
14474;SDS011;7323;50.848;4.334;2023-05-02T13:30:43;7.87;;;3.60;;
14474;SDS011;7323;50.848;4.334;2023-05-02T13:33:09;8.07;;;3.80;;
14474;SDS011;7323;50.848;4.334;2023-05-02T13:35:35;6.87;;;3.53;;
14474;SDS011;7323;50.848;4.334;2023-05-02T13:38:01;9.63;;;4.00;;
14474;SDS011;7323;50.848;4.334;2023-05-02T13:40:27;4.87;;;3.47;;
14474;SDS011;7323;50.848;4.334;2023-05-02T13:42:53;7.13;;;3.60;;
14474;SDS011;7323;50.848;4.334;2023-05-02T13:45:18;5.97;;;3.33;;
14474;SDS011;7323;50.848;4.334;2023-05-02T13:47:44;7.30;;;3.53;;
14474;SDS011;7323;50.848;4.334;2023-05-02T13:50:10;5.90;;;3.10;;
14474;SDS011;7323;50.848;4.334;2023-05-02T13:52:36;8.60;;;3.33;;
14474;SDS011;7323;50.848;4.334;2023-05-02T13:55:03;6.97;;;3.33;;
14474;SDS011;7323;50.848;4.334;2023-05-02T13:57:30;8.87;;;3.87;;
14474;SDS011;7323;50.848;4.334;2023-05-02T13:59:55;6.73;;;3.70;;
14474;SDS011;7323;50.848;4.334;2023-05-02T14:02:21;6.00;;;3.57;;
14474;SDS011;7323;50.848;4.334;2023-05-02T14:04:47;7.90;;;3.57;;
14474;SDS011;7323;50.848;4.334;2023-05-02T14:07:13;6.67;;;4.03;;
14474;SDS011;7323;50.848;4.334;2023-05-02T14:09:39;9.27;;;4.20;;
14474;SDS011;7323;50.848;4.334;2023-05-02T14:12:04;10.93;;;4.30;;
14474;SDS011;7323;50.848;4.334;2023-05-02T14:14:32;8.13;;;4.30;;
14474;SDS011;7323;50.848;4.334;2023-05-02T14:17:00;5.63;;;4.07;;
14474;SDS011;7323;50.848;4.334;2023-05-02T14:19:28;8.87;;;4.10;;
14474;SDS011;7323;50.848;4.334;2023-05-02T14:21:53;7.90;;;4.13;;
14474;SDS011;7323;50.848;4.334;2023-05-02T14:24:19;8.77;;;4.47;;
14474;SDS011;7323;50.848;4.334;2023-05-02T14:26:48;7.30;;;3.90;;
14474;SDS011;7323;50.848;4.334;2023-05-02T14:29:15;9.17;;;4.10;;
14474;SDS011;7323;50.848;4.334;2023-05-02T14:31:42;8.47;;;4.23;;
14474;SDS011;7323;50.848;4.334;2023-05-02T14:34:07;6.30;;;3.90;;
14474;SDS011;7323;50.848;4.334;2023-05-02T14:36:33;8.70;;;3.63;;
14474;SDS011;7323;50.848;4.334;2023-05-02T14:38:59;5.60;;;3.93;;
14474;SDS011;7323;50.848;4.334;2023-05-02T14:41:27;5.73;;;3.57;;
14474;SDS011;7323;50.848;4.334;2023-05-02T14:43:54;7.50;;;3.50;;
14474;SDS011;7323;50.848;4.334;2023-05-02T14:46:23;8.83;;;3.63;;
14474;SDS011;7323;50.848;4.334;2023-05-02T14:48:49;6.77;;;3.40;;
14474;SDS011;7323;50.848;4.334;2023-05-02T14:51:15;6.60;;;3.53;;
14474;SDS011;7323;50.848;4.334;2023-05-02T14:53:42;7.53;;;4.00;;
14474;SDS011;7323;50.848;4.334;2023-05-02T14:56:12;7.87;;;3.80;;
14474;SDS011;7323;50.848;4.334;2023-05-02T14:58:39;11.03;;;3.60;;
14474;SDS011;7323;50.848;4.334;2023-05-02T15:01:15;8.43;;;4.40;;
14474;SDS011;7323;50.848;4.334;2023-05-02T15:03:42;6.03;;;4.13;;
14474;SDS011;7323;50.848;4.334;2023-05-02T15:06:10;7.37;;;3.70;;
14474;SDS011;7323;50.848;4.334;2023-05-02T15:08:37;6.10;;;3.30;;
14474;SDS011;7323;50.848;4.334;2023-05-02T15:11:03;10.70;;;3.63;;
14474;SDS011;7323;50.848;4.334;2023-05-02T15:13:30;7.87;;;3.67;;
14474;SDS011;7323;50.848;4.334;2023-05-02T15:15:55;6.67;;;3.80;;
14474;SDS011;7323;50.848;4.334;2023-05-02T15:18:21;6.37;;;3.57;;
14474;SDS011;7323;50.848;4.334;2023-05-02T15:20:48;9.90;;;4.23;;
14474;SDS011;7323;50.848;4.334;2023-05-02T15:23:17;6.47;;;3.90;;
14474;SDS011;7323;50.848;4.334;2023-05-02T15:28:16;8.53;;;3.90;;
14474;SDS011;7323;50.848;4.334;2023-05-02T15:30:42;10.10;;;4.20;;
14474;SDS011;7323;50.848;4.334;2023-05-02T15:33:08;7.37;;;4.20;;
14474;SDS011;7323;50.848;4.334;2023-05-02T15:35:34;9.40;;;4.60;;
14474;SDS011;7323;50.848;4.334;2023-05-02T15:38:00;6.87;;;4.37;;
14474;SDS011;7323;50.848;4.334;2023-05-02T15:40:30;8.77;;;4.83;;
14474;SDS011;7323;50.848;4.334;2023-05-02T15:42:56;8.27;;;4.97;;
14474;SDS011;7323;50.848;4.334;2023-05-02T15:45:22;8.87;;;4.63;;
14474;SDS011;7323;50.848;4.334;2023-05-02T15:47:47;8.57;;;4.60;;
14474;SDS011;7323;50.848;4.334;2023-05-02T15:50:15;9.13;;;4.63;;
14474;SDS011;7323;50.848;4.334;2023-05-02T15:52:40;8.10;;;4.80;;
14474;SDS011;7323;50.848;4.334;2023-05-02T15:55:06;8.87;;;5.40;;
14474;SDS011;7323;50.848;4.334;2023-05-02T15:57:32;8.47;;;4.50;;
14474;SDS011;7323;50.848;4.334;2023-05-02T15:59:58;6.53;;;4.23;;
14474;SDS011;7323;50.848;4.334;2023-05-02T16:02:25;8.13;;;4.73;;
14474;SDS011;7323;50.848;4.334;2023-05-02T16:04:51;11.03;;;5.23;;
14474;SDS011;7323;50.848;4.334;2023-05-02T16:07:17;8.90;;;4.83;;
14474;SDS011;7323;50.848;4.334;2023-05-02T16:09:43;6.80;;;4.47;;
14474;SDS011;7323;50.848;4.334;2023-05-02T16:12:08;8.93;;;5.27;;
14474;SDS011;7323;50.848;4.334;2023-05-02T16:14:34;14.90;;;4.97;;
14474;SDS011;7323;50.848;4.334;2023-05-02T16:17:00;8.70;;;4.60;;
14474;SDS011;7323;50.848;4.334;2023-05-02T16:19:26;10.43;;;5.47;;
14474;SDS011;7323;50.848;4.334;2023-05-02T16:21:52;9.57;;;5.27;;
14474;SDS011;7323;50.848;4.334;2023-05-02T16:24:17;10.17;;;5.40;;
14474;SDS011;7323;50.848;4.334;2023-05-02T16:26:44;9.13;;;5.10;;
14474;SDS011;7323;50.848;4.334;2023-05-02T16:29:10;11.63;;;5.33;;
14474;SDS011;7323;50.848;4.334;2023-05-02T16:31:36;9.67;;;5.30;;
14474;SDS011;7323;50.848;4.334;2023-05-02T16:34:02;11.47;;;5.40;;
14474;SDS011;7323;50.848;4.334;2023-05-02T16:36:28;11.20;;;5.50;;
14474;SDS011;7323;50.848;4.334;2023-05-02T16:38:56;11.47;;;5.10;;
14474;SDS011;7323;50.848;4.334;2023-05-02T16:41:23;8.70;;;4.67;;
14474;SDS011;7323;50.848;4.334;2023-05-02T16:43:50;9.80;;;5.23;;
14474;SDS011;7323;50.848;4.334;2023-05-02T16:46:18;9.37;;;5.03;;
14474;SDS011;7323;50.848;4.334;2023-05-02T16:48:47;9.50;;;5.10;;
14474;SDS011;7323;50.848;4.334;2023-05-02T16:51:14;6.53;;;4.63;;
14474;SDS011;7323;50.848;4.334;2023-05-02T16:53:40;10.37;;;5.00;;
14474;SDS011;7323;50.848;4.334;2023-05-02T16:56:07;13.03;;;5.77;;
14474;SDS011;7323;50.848;4.334;2023-05-02T16:58:33;9.30;;;5.00;;
14474;SDS011;7323;50.848;4.334;2023-05-02T17:00:59;7.83;;;5.20;;
14474;SDS011;7323;50.848;4.334;2023-05-02T17:03:26;9.37;;;5.23;;
14474;SDS011;7323;50.848;4.334;2023-05-02T17:05:58;8.23;;;4.90;;
14474;SDS011;7323;50.848;4.334;2023-05-02T17:08:26;12.90;;;5.20;;
14474;SDS011;7323;50.848;4.334;2023-05-02T17:10:58;8.03;;;5.17;;
14474;SDS011;7323;50.848;4.334;2023-05-02T17:13:24;10.83;;;5.80;;
14474;SDS011;7323;50.848;4.334;2023-05-02T17:15:51;9.10;;;5.60;;
14474;SDS011;7323;50.848;4.334;2023-05-02T17:18:17;8.93;;;5.67;;
14474;SDS011;7323;50.848;4.334;2023-05-02T17:20:43;9.83;;;5.43;;
14474;SDS011;7323;50.848;4.334;2023-05-02T17:23:10;9.80;;;5.10;;
14474;SDS011;7323;50.848;4.334;2023-05-02T17:25:36;12.53;;;5.30;;
14474;SDS011;7323;50.848;4.334;2023-05-02T17:28:02;11.10;;;5.57;;
14474;SDS011;7323;50.848;4.334;2023-05-02T17:30:28;9.30;;;5.33;;
14474;SDS011;7323;50.848;4.334;2023-05-02T17:32:54;8.90;;;6.27;;
14474;SDS011;7323;50.848;4.334;2023-05-02T17:35:20;9.47;;;5.40;;
14474;SDS011;7323;50.848;4.334;2023-05-02T17:37:46;9.60;;;6.20;;
14474;SDS011;7323;50.848;4.334;2023-05-02T17:40:11;12.17;;;5.90;;
14474;SDS011;7323;50.848;4.334;2023-05-02T17:42:38;11.90;;;5.97;;
14474;SDS011;7323;50.848;4.334;2023-05-02T17:45:09;8.80;;;5.33;;
14474;SDS011;7323;50.848;4.334;2023-05-02T17:47:35;8.87;;;5.63;;
14474;SDS011;7323;50.848;4.334;2023-05-02T17:50:01;11.30;;;5.30;;
14474;SDS011;7323;50.848;4.334;2023-05-02T17:52:30;8.73;;;4.90;;
14474;SDS011;7323;50.848;4.334;2023-05-02T17:54:58;11.90;;;5.87;;
14474;SDS011;7323;50.848;4.334;2023-05-02T17:57:24;8.83;;;5.07;;
14474;SDS011;7323;50.848;4.334;2023-05-02T17:59:50;8.17;;;4.87;;
14474;SDS011;7323;50.848;4.334;2023-05-02T18:02:22;9.13;;;5.07;;
14474;SDS011;7323;50.848;4.334;2023-05-02T18:04:48;11.00;;;5.33;;
14474;SDS011;7323;50.848;4.334;2023-05-02T18:07:14;8.50;;;4.80;;
14474;SDS011;7323;50.848;4.334;2023-05-02T18:12:24;10.73;;;5.27;;
14474;SDS011;7323;50.848;4.334;2023-05-02T18:15:01;8.33;;;5.07;;
14474;SDS011;7323;50.848;4.334;2023-05-02T18:17:38;10.90;;;5.77;;
14474;SDS011;7323;50.848;4.334;2023-05-02T18:20:04;10.47;;;5.10;;
14474;SDS011;7323;50.848;4.334;2023-05-02T18:22:31;10.93;;;5.53;;
14474;SDS011;7323;50.848;4.334;2023-05-02T18:24:58;8.83;;;5.13;;
14474;SDS011;7323;50.848;4.334;2023-05-02T18:27:23;9.27;;;4.57;;
14474;SDS011;7323;50.848;4.334;2023-05-02T18:29:49;9.70;;;4.77;;
14474;SDS011;7323;50.848;4.334;2023-05-02T18:32:17;14.20;;;6.57;;
14474;SDS011;7323;50.848;4.334;2023-05-02T18:34:44;10.60;;;5.80;;
14474;SDS011;7323;50.848;4.334;2023-05-02T18:37:11;11.33;;;5.23;;
14474;SDS011;7323;50.848;4.334;2023-05-02T18:39:36;10.20;;;5.13;;
14474;SDS011;7323;50.848;4.334;2023-05-02T18:42:02;9.80;;;4.87;;
14474;SDS011;7323;50.848;4.334;2023-05-02T18:44:31;7.77;;;4.93;;
14474;SDS011;7323;50.848;4.334;2023-05-02T18:47:00;11.87;;;5.20;;
14474;SDS011;7323;50.848;4.334;2023-05-02T18:49:26;7.90;;;5.00;;
14474;SDS011;7323;50.848;4.334;2023-05-02T18:51:52;10.93;;;5.27;;
14474;SDS011;7323;50.848;4.334;2023-05-02T18:54:19;12.47;;;5.20;;